sensor_id;sensor_type;location;lat;lon;timestamp;P1;durP1;ratioP1;P2;durP2;ratioP2
26277;SDS011;14000;52.056;8.510;2023-07-13T00:01:15;10.60;;;2.87;;
26277;SDS011;14000;52.056;8.510;2023-07-13T00:03:42;8.63;;;2.23;;
26277;SDS011;14000;52.056;8.510;2023-07-13T00:06:08;11.53;;;3.13;;
26277;SDS011;14000;52.056;8.510;2023-07-13T00:08:34;10.93;;;2.80;;
26277;SDS011;14000;52.056;8.510;2023-07-13T00:11:00;11.33;;;2.70;;
26277;SDS011;14000;52.056;8.510;2023-07-13T00:13:27;11.73;;;2.90;;
26277;SDS011;14000;52.056;8.510;2023-07-13T00:15:54;10.03;;;3.00;;
26277;SDS011;14000;52.056;8.510;2023-07-13T00:18:21;11.27;;;3.07;;
26277;SDS011;14000;52.056;8.510;2023-07-13T00:20:46;12.47;;;2.80;;
26277;SDS011;14000;52.056;8.510;2023-07-13T00:23:16;10.73;;;3.10;;
26277;SDS011;14000;52.056;8.510;2023-07-13T00:25:42;9.77;;;2.90;;
26277;SDS011;14000;52.056;8.510;2023-07-13T00:28:07;10.47;;;2.80;;
26277;SDS011;14000;52.056;8.510;2023-07-13T00:30:33;9.60;;;2.90;;
26277;SDS011;14000;52.056;8.510;2023-07-13T00:32:59;10.03;;;2.90;;
26277;SDS011;14000;52.056;8.510;2023-07-13T00:35:26;11.47;;;2.90;;
26277;SDS011;14000;52.056;8.510;2023-07-13T00:37:52;10.13;;;3.10;;
26277;SDS011;14000;52.056;8.510;2023-07-13T00:40:17;9.63;;;2.80;;
26277;SDS011;14000;52.056;8.510;2023-07-13T00:42:43;9.30;;;2.73;;
26277;SDS011;14000;52.056;8.510;2023-07-13T00:47:37;10.27;;;3.00;;
26277;SDS011;14000;52.056;8.510;2023-07-13T00:50:04;11.17;;;2.77;;
26277;SDS011;14000;52.056;8.510;2023-07-13T00:52:34;9.57;;;2.30;;
26277;SDS011;14000;52.056;8.510;2023-07-13T00:55:02;10.63;;;2.90;;
26277;SDS011;14000;52.056;8.510;2023-07-13T00:57:28;9.60;;;2.83;;
26277;SDS011;14000;52.056;8.510;2023-07-13T00:59:55;10.70;;;2.73;;
26277;SDS011;14000;52.056;8.510;2023-07-13T01:02:24;10.03;;;2.70;;
26277;SDS011;14000;52.056;8.510;2023-07-13T01:04:51;10.07;;;2.90;;
26277;SDS011;14000;52.056;8.510;2023-07-13T01:07:16;15.77;;;2.80;;
26277;SDS011;14000;52.056;8.510;2023-07-13T01:09:44;10.73;;;2.67;;
26277;SDS011;14000;52.056;8.510;2023-07-13T01:12:10;9.63;;;2.80;;
26277;SDS011;14000;52.056;8.510;2023-07-13T01:14:36;11.93;;;3.10;;
26277;SDS011;14000;52.056;8.510;2023-07-13T01:17:01;11.10;;;4.00;;
26277;SDS011;14000;52.056;8.510;2023-07-13T01:19:41;11.70;;;3.20;;
26277;SDS011;14000;52.056;8.510;2023-07-13T01:22:12;12.27;;;2.63;;
26277;SDS011;14000;52.056;8.510;2023-07-13T01:24:41;11.80;;;2.70;;
26277;SDS011;14000;52.056;8.510;2023-07-13T01:27:09;9.50;;;2.80;;
26277;SDS011;14000;52.056;8.510;2023-07-13T01:29:36;12.90;;;3.20;;
26277;SDS011;14000;52.056;8.510;2023-07-13T01:32:08;12.43;;;3.30;;
26277;SDS011;14000;52.056;8.510;2023-07-13T01:34:34;12.57;;;2.87;;
26277;SDS011;14000;52.056;8.510;2023-07-13T01:37:02;10.47;;;3.10;;
26277;SDS011;14000;52.056;8.510;2023-07-13T01:39:28;10.17;;;2.83;;
26277;SDS011;14000;52.056;8.510;2023-07-13T01:41:54;11.27;;;2.93;;
26277;SDS011;14000;52.056;8.510;2023-07-13T01:44:19;13.10;;;3.40;;
26277;SDS011;14000;52.056;8.510;2023-07-13T01:46:45;11.60;;;3.17;;
26277;SDS011;14000;52.056;8.510;2023-07-13T01:49:11;10.60;;;2.73;;
26277;SDS011;14000;52.056;8.510;2023-07-13T01:51:36;12.00;;;3.07;;
26277;SDS011;14000;52.056;8.510;2023-07-13T01:54:02;11.20;;;3.00;;
26277;SDS011;14000;52.056;8.510;2023-07-13T01:56:28;11.20;;;3.20;;
26277;SDS011;14000;52.056;8.510;2023-07-13T01:58:53;10.30;;;2.90;;
26277;SDS011;14000;52.056;8.510;2023-07-13T02:01:19;16.93;;;3.60;;
26277;SDS011;14000;52.056;8.510;2023-07-13T02:03:44;12.23;;;3.13;;
26277;SDS011;14000;52.056;8.510;2023-07-13T02:06:11;13.20;;;3.07;;
26277;SDS011;14000;52.056;8.510;2023-07-13T02:08:37;12.67;;;3.10;;
26277;SDS011;14000;52.056;8.510;2023-07-13T02:11:03;12.90;;;3.47;;
26277;SDS011;14000;52.056;8.510;2023-07-13T02:13:28;11.53;;;3.63;;
26277;SDS011;14000;52.056;8.510;2023-07-13T02:15:54;12.23;;;3.40;;
26277;SDS011;14000;52.056;8.510;2023-07-13T02:18:20;10.70;;;3.53;;
26277;SDS011;14000;52.056;8.510;2023-07-13T02:20:45;10.93;;;3.40;;
26277;SDS011;14000;52.056;8.510;2023-07-13T02:23:11;11.17;;;3.00;;
26277;SDS011;14000;52.056;8.510;2023-07-13T02:25:37;10.47;;;3.10;;
26277;SDS011;14000;52.056;8.510;2023-07-13T02:28:03;10.13;;;3.07;;
26277;SDS011;14000;52.056;8.510;2023-07-13T02:30:29;11.90;;;2.83;;
26277;SDS011;14000;52.056;8.510;2023-07-13T02:32:55;12.40;;;3.20;;
26277;SDS011;14000;52.056;8.510;2023-07-13T02:35:21;11.87;;;3.30;;
26277;SDS011;14000;52.056;8.510;2023-07-13T02:37:47;10.40;;;2.90;;
26277;SDS011;14000;52.056;8.510;2023-07-13T02:40:13;12.20;;;3.20;;
26277;SDS011;14000;52.056;8.510;2023-07-13T02:42:39;14.73;;;3.33;;
26277;SDS011;14000;52.056;8.510;2023-07-13T02:45:05;11.27;;;3.03;;
26277;SDS011;14000;52.056;8.510;2023-07-13T02:47:32;11.93;;;3.10;;
26277;SDS011;14000;52.056;8.510;2023-07-13T02:49:58;14.43;;;3.50;;
26277;SDS011;14000;52.056;8.510;2023-07-13T02:52:24;13.63;;;4.50;;
26277;SDS011;14000;52.056;8.510;2023-07-13T02:54:50;13.10;;;3.30;;
26277;SDS011;14000;52.056;8.510;2023-07-13T02:57:15;15.47;;;3.47;;
26277;SDS011;14000;52.056;8.510;2023-07-13T02:59:41;14.47;;;2.90;;
26277;SDS011;14000;52.056;8.510;2023-07-13T03:02:07;14.10;;;3.17;;
26277;SDS011;14000;52.056;8.510;2023-07-13T03:04:34;13.13;;;3.17;;
26277;SDS011;14000;52.056;8.510;2023-07-13T03:07:04;19.87;;;3.53;;
26277;SDS011;14000;52.056;8.510;2023-07-13T03:09:31;12.73;;;3.10;;
26277;SDS011;14000;52.056;8.510;2023-07-13T03:11:58;11.80;;;3.17;;
26277;SDS011;14000;52.056;8.510;2023-07-13T03:14:26;14.57;;;3.37;;
26277;SDS011;14000;52.056;8.510;2023-07-13T03:16:52;17.83;;;3.30;;
26277;SDS011;14000;52.056;8.510;2023-07-13T03:19:18;16.97;;;3.40;;
26277;SDS011;14000;52.056;8.510;2023-07-13T03:21:44;16.47;;;3.33;;
26277;SDS011;14000;52.056;8.510;2023-07-13T03:24:10;17.43;;;3.43;;
26277;SDS011;14000;52.056;8.510;2023-07-13T03:26:36;19.03;;;3.17;;
26277;SDS011;14000;52.056;8.510;2023-07-13T03:29:01;14.67;;;3.13;;
26277;SDS011;14000;52.056;8.510;2023-07-13T03:31:29;12.10;;;3.37;;
26277;SDS011;14000;52.056;8.510;2023-07-13T03:33:58;13.17;;;3.33;;
26277;SDS011;14000;52.056;8.510;2023-07-13T03:36:25;14.80;;;3.17;;
26277;SDS011;14000;52.056;8.510;2023-07-13T03:38:53;15.87;;;3.50;;
26277;SDS011;14000;52.056;8.510;2023-07-13T03:41:20;17.73;;;3.77;;
26277;SDS011;14000;52.056;8.510;2023-07-13T03:43:47;18.67;;;4.63;;
26277;SDS011;14000;52.056;8.510;2023-07-13T03:46:13;13.63;;;3.80;;
26277;SDS011;14000;52.056;8.510;2023-07-13T03:48:40;17.43;;;4.00;;
26277;SDS011;14000;52.056;8.510;2023-07-13T03:51:08;15.27;;;3.70;;
26277;SDS011;14000;52.056;8.510;2023-07-13T03:53:38;14.53;;;3.70;;
26277;SDS011;14000;52.056;8.510;2023-07-13T03:56:05;15.50;;;4.43;;
26277;SDS011;14000;52.056;8.510;2023-07-13T03:58:32;17.53;;;4.30;;
26277;SDS011;14000;52.056;8.510;2023-07-13T04:01:00;12.30;;;4.37;;
26277;SDS011;14000;52.056;8.510;2023-07-13T04:03:27;17.13;;;4.00;;
26277;SDS011;14000;52.056;8.510;2023-07-13T04:05:55;12.30;;;3.87;;
26277;SDS011;14000;52.056;8.510;2023-07-13T04:08:25;15.10;;;3.57;;
26277;SDS011;14000;52.056;8.510;2023-07-13T04:10:52;14.90;;;4.23;;
26277;SDS011;14000;52.056;8.510;2023-07-13T04:13:17;18.00;;;4.13;;
26277;SDS011;14000;52.056;8.510;2023-07-13T04:15:43;14.17;;;4.10;;
26277;SDS011;14000;52.056;8.510;2023-07-13T04:18:08;14.47;;;3.70;;
26277;SDS011;14000;52.056;8.510;2023-07-13T04:20:34;12.27;;;3.83;;
26277;SDS011;14000;52.056;8.510;2023-07-13T04:23:00;15.77;;;3.87;;
26277;SDS011;14000;52.056;8.510;2023-07-13T04:25:25;13.57;;;3.60;;
26277;SDS011;14000;52.056;8.510;2023-07-13T04:27:52;12.17;;;3.33;;
26277;SDS011;14000;52.056;8.510;2023-07-13T04:30:18;14.83;;;3.60;;
26277;SDS011;14000;52.056;8.510;2023-07-13T04:32:44;16.37;;;3.30;;
26277;SDS011;14000;52.056;8.510;2023-07-13T04:35:09;15.20;;;3.50;;
26277;SDS011;14000;52.056;8.510;2023-07-13T04:37:35;13.13;;;3.10;;
26277;SDS011;14000;52.056;8.510;2023-07-13T04:40:01;16.97;;;3.47;;
26277;SDS011;14000;52.056;8.510;2023-07-13T04:42:28;15.37;;;3.30;;
26277;SDS011;14000;52.056;8.510;2023-07-13T04:44:54;14.23;;;3.30;;
26277;SDS011;14000;52.056;8.510;2023-07-13T04:47:20;12.53;;;2.90;;
26277;SDS011;14000;52.056;8.510;2023-07-13T04:49:46;12.47;;;3.10;;
26277;SDS011;14000;52.056;8.510;2023-07-13T04:52:11;12.53;;;3.70;;
26277;SDS011;14000;52.056;8.510;2023-07-13T04:54:37;13.47;;;3.70;;
26277;SDS011;14000;52.056;8.510;2023-07-13T04:57:04;14.70;;;2.97;;
26277;SDS011;14000;52.056;8.510;2023-07-13T04:59:33;12.30;;;3.13;;
26277;SDS011;14000;52.056;8.510;2023-07-13T05:01:59;15.20;;;3.27;;
26277;SDS011;14000;52.056;8.510;2023-07-13T05:04:26;14.67;;;3.03;;
26277;SDS011;14000;52.056;8.510;2023-07-13T05:06:52;15.33;;;2.90;;
26277;SDS011;14000;52.056;8.510;2023-07-13T05:09:17;14.97;;;3.37;;
26277;SDS011;14000;52.056;8.510;2023-07-13T05:11:43;15.87;;;3.60;;
26277;SDS011;14000;52.056;8.510;2023-07-13T05:14:09;16.73;;;3.23;;
26277;SDS011;14000;52.056;8.510;2023-07-13T05:16:35;16.60;;;3.77;;
26277;SDS011;14000;52.056;8.510;2023-07-13T05:19:01;13.97;;;3.13;;
26277;SDS011;14000;52.056;8.510;2023-07-13T05:21:28;12.67;;;3.30;;
26277;SDS011;14000;52.056;8.510;2023-07-13T05:23:54;13.93;;;3.00;;
26277;SDS011;14000;52.056;8.510;2023-07-13T05:26:19;16.13;;;3.60;;
26277;SDS011;14000;52.056;8.510;2023-07-13T05:28:45;15.63;;;3.17;;
26277;SDS011;14000;52.056;8.510;2023-07-13T05:31:12;17.70;;;3.20;;
26277;SDS011;14000;52.056;8.510;2023-07-13T05:33:37;16.67;;;3.87;;
26277;SDS011;14000;52.056;8.510;2023-07-13T05:36:03;13.93;;;2.67;;
26277;SDS011;14000;52.056;8.510;2023-07-13T05:38:29;15.30;;;2.97;;
26277;SDS011;14000;52.056;8.510;2023-07-13T05:40:55;11.50;;;2.90;;
26277;SDS011;14000;52.056;8.510;2023-07-13T05:43:21;13.53;;;2.80;;
26277;SDS011;14000;52.056;8.510;2023-07-13T05:45:47;15.07;;;3.20;;
26277;SDS011;14000;52.056;8.510;2023-07-13T05:48:13;15.37;;;2.87;;
26277;SDS011;14000;52.056;8.510;2023-07-13T05:50:39;15.10;;;3.00;;
26277;SDS011;14000;52.056;8.510;2023-07-13T05:53:05;16.93;;;3.53;;
26277;SDS011;14000;52.056;8.510;2023-07-13T05:55:31;14.17;;;3.20;;
26277;SDS011;14000;52.056;8.510;2023-07-13T05:57:57;15.07;;;3.13;;
26277;SDS011;14000;52.056;8.510;2023-07-13T06:00:23;14.63;;;3.17;;
26277;SDS011;14000;52.056;8.510;2023-07-13T06:02:50;13.37;;;3.13;;
26277;SDS011;14000;52.056;8.510;2023-07-13T06:05:15;14.50;;;2.77;;
26277;SDS011;14000;52.056;8.510;2023-07-13T06:07:41;13.20;;;3.00;;
26277;SDS011;14000;52.056;8.510;2023-07-13T06:10:07;15.27;;;3.03;;
26277;SDS011;14000;52.056;8.510;2023-07-13T06:12:33;12.30;;;2.90;;
26277;SDS011;14000;52.056;8.510;2023-07-13T06:14:58;12.70;;;2.50;;
26277;SDS011;14000;52.056;8.510;2023-07-13T06:17:24;12.20;;;2.70;;
26277;SDS011;14000;52.056;8.510;2023-07-13T06:19:49;13.97;;;3.00;;
26277;SDS011;14000;52.056;8.510;2023-07-13T06:22:15;14.50;;;2.60;;
26277;SDS011;14000;52.056;8.510;2023-07-13T06:24:41;13.50;;;3.00;;
26277;SDS011;14000;52.056;8.510;2023-07-13T06:27:06;12.70;;;2.87;;
26277;SDS011;14000;52.056;8.510;2023-07-13T06:29:32;13.17;;;2.80;;
26277;SDS011;14000;52.056;8.510;2023-07-13T06:31:58;13.87;;;3.23;;
26277;SDS011;14000;52.056;8.510;2023-07-13T06:34:23;13.60;;;3.40;;
26277;SDS011;14000;52.056;8.510;2023-07-13T06:36:49;13.53;;;3.60;;
26277;SDS011;14000;52.056;8.510;2023-07-13T06:39:15;17.53;;;4.10;;
26277;SDS011;14000;52.056;8.510;2023-07-13T06:41:40;15.10;;;3.87;;
26277;SDS011;14000;52.056;8.510;2023-07-13T06:44:06;18.00;;;3.97;;
26277;SDS011;14000;52.056;8.510;2023-07-13T06:46:32;12.93;;;3.50;;
26277;SDS011;14000;52.056;8.510;2023-07-13T06:48:58;17.60;;;3.47;;
26277;SDS011;14000;52.056;8.510;2023-07-13T06:51:23;14.80;;;3.63;;
26277;SDS011;14000;52.056;8.510;2023-07-13T06:53:50;15.23;;;3.80;;
26277;SDS011;14000;52.056;8.510;2023-07-13T06:56:16;17.30;;;3.40;;
26277;SDS011;14000;52.056;8.510;2023-07-13T06:58:42;14.50;;;3.80;;
26277;SDS011;14000;52.056;8.510;2023-07-13T07:01:07;14.83;;;3.60;;
26277;SDS011;14000;52.056;8.510;2023-07-13T07:03:34;15.93;;;3.80;;
26277;SDS011;14000;52.056;8.510;2023-07-13T07:06:01;17.07;;;4.07;;
26277;SDS011;14000;52.056;8.510;2023-07-13T07:08:31;17.47;;;3.83;;
26277;SDS011;14000;52.056;8.510;2023-07-13T07:10:57;17.83;;;4.10;;
26277;SDS011;14000;52.056;8.510;2023-07-13T07:13:24;16.73;;;3.90;;
26277;SDS011;14000;52.056;8.510;2023-07-13T07:15:49;16.90;;;4.23;;
26277;SDS011;14000;52.056;8.510;2023-07-13T07:18:15;17.23;;;3.97;;
26277;SDS011;14000;52.056;8.510;2023-07-13T07:20:41;12.57;;;3.63;;
26277;SDS011;14000;52.056;8.510;2023-07-13T07:23:06;15.30;;;3.87;;
26277;SDS011;14000;52.056;8.510;2023-07-13T07:25:32;12.67;;;3.57;;
26277;SDS011;14000;52.056;8.510;2023-07-13T07:28:01;18.63;;;4.57;;
26277;SDS011;14000;52.056;8.510;2023-07-13T07:30:27;21.40;;;8.27;;
26277;SDS011;14000;52.056;8.510;2023-07-13T07:32:53;16.63;;;4.03;;
26277;SDS011;14000;52.056;8.510;2023-07-13T07:35:19;10.67;;;3.00;;
26277;SDS011;14000;52.056;8.510;2023-07-13T07:37:44;17.93;;;4.13;;
26277;SDS011;14000;52.056;8.510;2023-07-13T07:40:10;15.17;;;3.43;;
26277;SDS011;14000;52.056;8.510;2023-07-13T07:42:35;16.17;;;3.53;;
26277;SDS011;14000;52.056;8.510;2023-07-13T07:45:01;16.70;;;3.73;;
26277;SDS011;14000;52.056;8.510;2023-07-13T07:47:27;13.63;;;3.07;;
26277;SDS011;14000;52.056;8.510;2023-07-13T07:49:52;12.90;;;3.50;;
26277;SDS011;14000;52.056;8.510;2023-07-13T07:52:18;13.60;;;3.70;;
26277;SDS011;14000;52.056;8.510;2023-07-13T07:54:44;14.27;;;3.80;;
26277;SDS011;14000;52.056;8.510;2023-07-13T07:57:10;13.93;;;3.53;;
26277;SDS011;14000;52.056;8.510;2023-07-13T07:59:36;16.77;;;4.00;;
26277;SDS011;14000;52.056;8.510;2023-07-13T08:02:02;15.17;;;3.97;;
26277;SDS011;14000;52.056;8.510;2023-07-13T08:04:28;14.43;;;4.07;;
26277;SDS011;14000;52.056;8.510;2023-07-13T08:06:53;15.43;;;4.60;;
26277;SDS011;14000;52.056;8.510;2023-07-13T08:09:21;12.33;;;3.30;;
26277;SDS011;14000;52.056;8.510;2023-07-13T08:11:47;13.00;;;3.37;;
26277;SDS011;14000;52.056;8.510;2023-07-13T08:14:12;13.30;;;3.20;;
26277;SDS011;14000;52.056;8.510;2023-07-13T08:16:39;12.53;;;3.20;;
26277;SDS011;14000;52.056;8.510;2023-07-13T08:19:05;14.70;;;3.30;;
26277;SDS011;14000;52.056;8.510;2023-07-13T08:21:31;16.27;;;3.83;;
26277;SDS011;14000;52.056;8.510;2023-07-13T08:23:57;14.03;;;2.90;;
26277;SDS011;14000;52.056;8.510;2023-07-13T08:26:22;15.10;;;2.63;;
26277;SDS011;14000;52.056;8.510;2023-07-13T08:28:48;13.50;;;2.77;;
26277;SDS011;14000;52.056;8.510;2023-07-13T08:31:14;14.40;;;2.70;;
26277;SDS011;14000;52.056;8.510;2023-07-13T08:33:40;13.83;;;2.97;;
26277;SDS011;14000;52.056;8.510;2023-07-13T08:36:06;13.43;;;2.97;;
26277;SDS011;14000;52.056;8.510;2023-07-13T08:38:31;14.27;;;3.30;;
26277;SDS011;14000;52.056;8.510;2023-07-13T08:40:57;12.47;;;2.63;;
26277;SDS011;14000;52.056;8.510;2023-07-13T08:43:27;12.77;;;2.83;;
26277;SDS011;14000;52.056;8.510;2023-07-13T08:45:58;15.93;;;3.37;;
26277;SDS011;14000;52.056;8.510;2023-07-13T08:48:35;15.27;;;3.00;;
26277;SDS011;14000;52.056;8.510;2023-07-13T08:53:47;11.60;;;2.57;;
26277;SDS011;14000;52.056;8.510;2023-07-13T08:56:19;11.17;;;2.20;;
26277;SDS011;14000;52.056;8.510;2023-07-13T08:58:47;13.37;;;3.10;;
26277;SDS011;14000;52.056;8.510;2023-07-13T09:07:05;13.03;;;2.93;;
26277;SDS011;14000;52.056;8.510;2023-07-13T09:15:24;11.33;;;2.77;;
26277;SDS011;14000;52.056;8.510;2023-07-13T09:17:55;11.23;;;2.97;;
26277;SDS011;14000;52.056;8.510;2023-07-13T09:22:57;13.73;;;3.37;;
26277;SDS011;14000;52.056;8.510;2023-07-13T09:25:29;12.73;;;3.17;;
26277;SDS011;14000;52.056;8.510;2023-07-13T09:28:01;11.57;;;3.10;;
26277;SDS011;14000;52.056;8.510;2023-07-13T09:33:08;12.17;;;3.10;;
26277;SDS011;14000;52.056;8.510;2023-07-13T09:35:34;10.67;;;2.87;;
26277;SDS011;14000;52.056;8.510;2023-07-13T09:38:14;13.30;;;2.93;;
26277;SDS011;14000;52.056;8.510;2023-07-13T09:43:34;11.53;;;2.73;;
26277;SDS011;14000;52.056;8.510;2023-07-13T09:46:00;10.83;;;2.57;;
26277;SDS011;14000;52.056;8.510;2023-07-13T09:48:26;11.90;;;2.57;;
26277;SDS011;14000;52.056;8.510;2023-07-13T09:51:06;12.47;;;2.53;;
26277;SDS011;14000;52.056;8.510;2023-07-13T09:53:39;9.13;;;2.17;;
26277;SDS011;14000;52.056;8.510;2023-07-13T09:56:18;12.00;;;2.70;;
26277;SDS011;14000;52.056;8.510;2023-07-13T09:58:48;10.00;;;2.63;;
26277;SDS011;14000;52.056;8.510;2023-07-13T10:01:14;9.00;;;2.20;;
26277;SDS011;14000;52.056;8.510;2023-07-13T10:03:41;10.80;;;2.13;;
26277;SDS011;14000;52.056;8.510;2023-07-13T10:06:19;10.87;;;2.27;;
26277;SDS011;14000;52.056;8.510;2023-07-13T10:08:49;8.90;;;2.63;;
26277;SDS011;14000;52.056;8.510;2023-07-13T10:16:16;10.27;;;2.77;;
26277;SDS011;14000;52.056;8.510;2023-07-13T10:18:45;10.37;;;2.33;;
26277;SDS011;14000;52.056;8.510;2023-07-13T10:21:20;10.43;;;2.03;;
26277;SDS011;14000;52.056;8.510;2023-07-13T10:23:50;10.00;;;2.27;;
26277;SDS011;14000;52.056;8.510;2023-07-13T10:26:21;9.80;;;2.20;;
26277;SDS011;14000;52.056;8.510;2023-07-13T10:28:52;17.77;;;3.07;;
26277;SDS011;14000;52.056;8.510;2023-07-13T10:31:21;9.40;;;2.23;;
26277;SDS011;14000;52.056;8.510;2023-07-13T10:33:48;10.27;;;2.40;;
26277;SDS011;14000;52.056;8.510;2023-07-13T10:39:23;13.27;;;2.60;;
26277;SDS011;14000;52.056;8.510;2023-07-13T10:41:57;12.40;;;3.17;;
26277;SDS011;14000;52.056;8.510;2023-07-13T10:44:28;11.10;;;2.70;;
26277;SDS011;14000;52.056;8.510;2023-07-13T10:47:00;11.20;;;2.90;;
26277;SDS011;14000;52.056;8.510;2023-07-13T10:49:30;11.40;;;2.90;;
26277;SDS011;14000;52.056;8.510;2023-07-13T10:51:57;11.70;;;2.87;;
26277;SDS011;14000;52.056;8.510;2023-07-13T10:59:43;11.63;;;3.23;;
26277;SDS011;14000;52.056;8.510;2023-07-13T11:02:16;12.90;;;3.07;;
26277;SDS011;14000;52.056;8.510;2023-07-13T11:04:49;8.97;;;2.90;;
26277;SDS011;14000;52.056;8.510;2023-07-13T11:07:20;8.00;;;2.50;;
26277;SDS011;14000;52.056;8.510;2023-07-13T11:09:50;11.63;;;3.13;;
26277;SDS011;14000;52.056;8.510;2023-07-13T11:17:29;13.37;;;3.37;;
26277;SDS011;14000;52.056;8.510;2023-07-13T11:25:27;11.70;;;3.60;;
26277;SDS011;14000;52.056;8.510;2023-07-13T11:30:48;12.03;;;4.03;;
26277;SDS011;14000;52.056;8.510;2023-07-13T11:36:05;11.60;;;4.43;;
26277;SDS011;14000;52.056;8.510;2023-07-13T11:38:40;11.10;;;4.37;;
26277;SDS011;14000;52.056;8.510;2023-07-13T11:41:27;14.33;;;4.53;;
26277;SDS011;14000;52.056;8.510;2023-07-13T11:46:53;13.93;;;3.43;;
26277;SDS011;14000;52.056;8.510;2023-07-13T11:49:29;10.60;;;3.20;;
26277;SDS011;14000;52.056;8.510;2023-07-13T11:51:57;9.83;;;3.07;;
26277;SDS011;14000;52.056;8.510;2023-07-13T11:54:27;9.37;;;3.20;;
26277;SDS011;14000;52.056;8.510;2023-07-13T12:00:03;12.40;;;2.90;;
26277;SDS011;14000;52.056;8.510;2023-07-13T12:02:47;9.43;;;2.33;;
26277;SDS011;14000;52.056;8.510;2023-07-13T12:05:16;9.20;;;2.23;;
26277;SDS011;14000;52.056;8.510;2023-07-13T12:07:43;9.37;;;2.27;;
26277;SDS011;14000;52.056;8.510;2023-07-13T12:12:46;9.57;;;2.40;;
26277;SDS011;14000;52.056;8.510;2023-07-13T12:15:23;10.00;;;3.10;;
26277;SDS011;14000;52.056;8.510;2023-07-13T12:17:55;8.60;;;3.17;;
26277;SDS011;14000;52.056;8.510;2023-07-13T12:20:23;13.67;;;4.03;;
26277;SDS011;14000;52.056;8.510;2023-07-13T12:22:58;11.60;;;3.57;;
26277;SDS011;14000;52.056;8.510;2023-07-13T12:25:24;9.77;;;3.23;;
26277;SDS011;14000;52.056;8.510;2023-07-13T12:27:50;9.17;;;2.90;;
26277;SDS011;14000;52.056;8.510;2023-07-13T12:33:07;11.43;;;2.90;;
26277;SDS011;14000;52.056;8.510;2023-07-13T12:35:46;11.60;;;3.20;;
26277;SDS011;14000;52.056;8.510;2023-07-13T12:38:13;10.57;;;2.90;;
26277;SDS011;14000;52.056;8.510;2023-07-13T12:40:40;11.27;;;2.90;;
26277;SDS011;14000;52.056;8.510;2023-07-13T12:43:10;7.97;;;2.33;;
26277;SDS011;14000;52.056;8.510;2023-07-13T12:45:37;10.70;;;2.97;;
26277;SDS011;14000;52.056;8.510;2023-07-13T12:48:05;10.13;;;3.03;;
26277;SDS011;14000;52.056;8.510;2023-07-13T12:50:39;10.43;;;3.37;;
26277;SDS011;14000;52.056;8.510;2023-07-13T12:53:20;8.53;;;2.83;;
26277;SDS011;14000;52.056;8.510;2023-07-13T12:55:54;9.73;;;2.70;;
26277;SDS011;14000;52.056;8.510;2023-07-13T13:01:03;12.53;;;4.00;;
26277;SDS011;14000;52.056;8.510;2023-07-13T13:06:04;10.90;;;3.67;;
26277;SDS011;14000;52.056;8.510;2023-07-13T13:08:44;9.30;;;2.27;;
26277;SDS011;14000;52.056;8.510;2023-07-13T13:11:11;9.73;;;2.70;;
26277;SDS011;14000;52.056;8.510;2023-07-13T13:13:37;9.87;;;2.63;;
26277;SDS011;14000;52.056;8.510;2023-07-13T13:16:08;10.73;;;2.60;;
26277;SDS011;14000;52.056;8.510;2023-07-13T13:18:56;8.70;;;2.40;;
26277;SDS011;14000;52.056;8.510;2023-07-13T13:21:25;9.60;;;2.20;;
26277;SDS011;14000;52.056;8.510;2023-07-13T13:23:51;9.93;;;2.40;;
26277;SDS011;14000;52.056;8.510;2023-07-13T13:26:18;10.73;;;2.53;;
26277;SDS011;14000;52.056;8.510;2023-07-13T13:28:45;8.77;;;2.40;;
26277;SDS011;14000;52.056;8.510;2023-07-13T13:31:12;8.60;;;2.20;;
26277;SDS011;14000;52.056;8.510;2023-07-13T13:33:39;7.80;;;2.07;;
26277;SDS011;14000;52.056;8.510;2023-07-13T13:36:14;8.63;;;2.43;;
26277;SDS011;14000;52.056;8.510;2023-07-13T13:38:42;10.10;;;2.23;;
26277;SDS011;14000;52.056;8.510;2023-07-13T13:41:12;11.73;;;2.90;;
26277;SDS011;14000;52.056;8.510;2023-07-13T13:43:39;11.47;;;2.63;;
26277;SDS011;14000;52.056;8.510;2023-07-13T13:46:12;11.27;;;2.90;;
26277;SDS011;14000;52.056;8.510;2023-07-13T13:48:50;17.90;;;4.13;;
26277;SDS011;14000;52.056;8.510;2023-07-13T13:51:17;16.33;;;4.33;;
26277;SDS011;14000;52.056;8.510;2023-07-13T13:53:47;11.30;;;4.20;;
26277;SDS011;14000;52.056;8.510;2023-07-13T13:56:13;11.57;;;4.50;;
26277;SDS011;14000;52.056;8.510;2023-07-13T13:58:40;18.93;;;5.87;;
26277;SDS011;14000;52.056;8.510;2023-07-13T14:01:19;15.23;;;6.23;;
26277;SDS011;14000;52.056;8.510;2023-07-13T14:03:47;14.13;;;6.00;;
26277;SDS011;14000;52.056;8.510;2023-07-13T14:06:14;15.27;;;6.47;;
26277;SDS011;14000;52.056;8.510;2023-07-13T14:08:41;17.53;;;8.00;;
26277;SDS011;14000;52.056;8.510;2023-07-13T14:11:08;20.03;;;8.10;;
26277;SDS011;14000;52.056;8.510;2023-07-13T14:13:38;16.97;;;8.00;;
26277;SDS011;14000;52.056;8.510;2023-07-13T14:16:12;13.97;;;7.40;;
26277;SDS011;14000;52.056;8.510;2023-07-13T14:18:42;16.17;;;7.70;;
26277;SDS011;14000;52.056;8.510;2023-07-13T14:21:13;15.77;;;6.70;;
26277;SDS011;14000;52.056;8.510;2023-07-13T14:23:43;17.77;;;7.30;;
26277;SDS011;14000;52.056;8.510;2023-07-13T14:26:11;16.27;;;7.40;;
26277;SDS011;14000;52.056;8.510;2023-07-13T14:28:44;23.33;;;10.40;;
26277;SDS011;14000;52.056;8.510;2023-07-13T14:31:12;18.43;;;8.20;;
26277;SDS011;14000;52.056;8.510;2023-07-13T14:33:39;16.17;;;7.00;;
26277;SDS011;14000;52.056;8.510;2023-07-13T14:36:27;16.43;;;5.60;;
26277;SDS011;14000;52.056;8.510;2023-07-13T14:39:16;15.07;;;5.27;;
26277;SDS011;14000;52.056;8.510;2023-07-13T14:41:44;14.80;;;5.27;;
26277;SDS011;14000;52.056;8.510;2023-07-13T14:44:14;14.97;;;5.77;;
26277;SDS011;14000;52.056;8.510;2023-07-13T14:46:40;11.43;;;4.67;;
26277;SDS011;14000;52.056;8.510;2023-07-13T14:51:55;11.57;;;3.30;;
26277;SDS011;14000;52.056;8.510;2023-07-13T14:54:23;8.70;;;3.50;;
26277;SDS011;14000;52.056;8.510;2023-07-13T14:56:49;10.63;;;3.57;;
26277;SDS011;14000;52.056;8.510;2023-07-13T14:59:15;10.73;;;3.73;;
26277;SDS011;14000;52.056;8.510;2023-07-13T15:01:43;9.30;;;3.50;;
26277;SDS011;14000;52.056;8.510;2023-07-13T15:04:10;9.33;;;3.90;;
26277;SDS011;14000;52.056;8.510;2023-07-13T15:06:55;9.60;;;3.90;;
26277;SDS011;14000;52.056;8.510;2023-07-13T15:09:23;10.53;;;4.77;;
26277;SDS011;14000;52.056;8.510;2023-07-13T15:11:50;12.10;;;5.07;;
26277;SDS011;14000;52.056;8.510;2023-07-13T15:14:20;11.33;;;4.50;;
26277;SDS011;14000;52.056;8.510;2023-07-13T15:16:46;9.77;;;4.27;;
26277;SDS011;14000;52.056;8.510;2023-07-13T15:19:14;11.90;;;4.80;;
26277;SDS011;14000;52.056;8.510;2023-07-13T15:21:41;11.60;;;4.50;;
26277;SDS011;14000;52.056;8.510;2023-07-13T15:24:08;10.97;;;4.43;;
26277;SDS011;14000;52.056;8.510;2023-07-13T15:26:35;11.40;;;4.60;;
26277;SDS011;14000;52.056;8.510;2023-07-13T15:29:01;12.87;;;4.73;;
26277;SDS011;14000;52.056;8.510;2023-07-13T15:31:28;10.67;;;4.73;;
26277;SDS011;14000;52.056;8.510;2023-07-13T15:33:55;13.53;;;5.23;;
26277;SDS011;14000;52.056;8.510;2023-07-13T15:36:22;9.60;;;4.30;;
26277;SDS011;14000;52.056;8.510;2023-07-13T15:38:48;12.20;;;4.90;;
26277;SDS011;14000;52.056;8.510;2023-07-13T15:41:20;11.47;;;4.57;;
26277;SDS011;14000;52.056;8.510;2023-07-13T15:43:52;10.90;;;4.87;;
26277;SDS011;14000;52.056;8.510;2023-07-13T15:46:20;12.03;;;5.10;;
26277;SDS011;14000;52.056;8.510;2023-07-13T15:48:48;11.27;;;4.83;;
26277;SDS011;14000;52.056;8.510;2023-07-13T15:51:18;12.50;;;5.03;;
26277;SDS011;14000;52.056;8.510;2023-07-13T15:53:49;10.67;;;5.20;;